sensor_id;sensor_type;location;lat;lon;timestamp;pressure;altitude;pressure_sealevel;temperature
68743;BMP180;55725;42.758;26.702;2022-10-16T00:00:20;99957.00;;;10.50
68743;BMP180;55725;42.758;26.702;2022-10-16T00:02:01;99951.00;;;10.40
68743;BMP180;55725;42.758;26.702;2022-10-16T00:03:41;99960.00;;;10.40
68743;BMP180;55725;42.758;26.702;2022-10-16T00:05:22;99964.00;;;10.40
68743;BMP180;55725;42.758;26.702;2022-10-16T00:07:02;99962.00;;;10.00
68743;BMP180;55725;42.758;26.702;2022-10-16T00:08:43;99964.00;;;10.50
68743;BMP180;55725;42.758;26.702;2022-10-16T00:10:23;99962.00;;;10.40
68743;BMP180;55725;42.758;26.702;2022-10-16T00:12:03;99963.00;;;10.10
68743;BMP180;55725;42.758;26.702;2022-10-16T00:13:47;99966.00;;;10.00
68743;BMP180;55725;42.758;26.702;2022-10-16T00:15:28;99967.00;;;10.10
68743;BMP180;55725;42.758;26.702;2022-10-16T00:17:08;99966.00;;;10.00
68743;BMP180;55725;42.758;26.702;2022-10-16T00:18:48;99970.00;;;10.60
68743;BMP180;55725;42.758;26.702;2022-10-16T00:20:28;99971.00;;;10.30
68743;BMP180;55725;42.758;26.702;2022-10-16T00:22:11;99972.00;;;10.50
68743;BMP180;55725;42.758;26.702;2022-10-16T00:23:52;99965.00;;;10.30
68743;BMP180;55725;42.758;26.702;2022-10-16T00:25:32;99971.00;;;10.30
68743;BMP180;55725;42.758;26.702;2022-10-16T00:27:13;99959.00;;;10.40
68743;BMP180;55725;42.758;26.702;2022-10-16T00:28:53;99956.00;;;10.70
68743;BMP180;55725;42.758;26.702;2022-10-16T00:30:36;99959.00;;;10.50
68743;BMP180;55725;42.758;26.702;2022-10-16T00:32:18;99954.00;;;10.40
68743;BMP180;55725;42.758;26.702;2022-10-16T00:33:58;99959.00;;;10.50
68743;BMP180;55725;42.758;26.702;2022-10-16T00:35:38;99961.00;;;10.60
68743;BMP180;55725;42.758;26.702;2022-10-16T00:37:19;99955.00;;;10.50
68743;BMP180;55725;42.758;26.702;2022-10-16T00:38:59;99962.00;;;10.70
68743;BMP180;55725;42.758;26.702;2022-10-16T00:40:40;99955.00;;;10.70
68743;BMP180;55725;42.758;26.702;2022-10-16T00:42:21;99954.00;;;10.30
68743;BMP180;55725;42.758;26.702;2022-10-16T00:44:03;99957.00;;;10.40
68743;BMP180;55725;42.758;26.702;2022-10-16T00:45:43;99958.00;;;10.20
68743;BMP180;55725;42.758;26.702;2022-10-16T00:47:26;99952.00;;;10.20
68743;BMP180;55725;42.758;26.702;2022-10-16T00:50:50;99960.00;;;10.20
68743;BMP180;55725;42.758;26.702;2022-10-16T00:52:30;99947.00;;;10.30
68743;BMP180;55725;42.758;26.702;2022-10-16T00:54:12;99950.00;;;10.20
68743;BMP180;55725;42.758;26.702;2022-10-16T00:55:53;99950.00;;;10.10
68743;BMP180;55725;42.758;26.702;2022-10-16T00:57:33;99960.00;;;9.90
68743;BMP180;55725;42.758;26.702;2022-10-16T00:59:24;99952.00;;;9.90
68743;BMP180;55725;42.758;26.702;2022-10-16T01:01:05;99951.00;;;10.20
68743;BMP180;55725;42.758;26.702;2022-10-16T01:02:51;99957.00;;;10.10
68743;BMP180;55725;42.758;26.702;2022-10-16T01:04:33;99955.00;;;9.90
68743;BMP180;55725;42.758;26.702;2022-10-16T01:08:13;99957.00;;;10.00
68743;BMP180;55725;42.758;26.702;2022-10-16T01:13:46;99963.00;;;10.00
68743;BMP180;55725;42.758;26.702;2022-10-16T01:15:50;99961.00;;;10.00
68743;BMP180;55725;42.758;26.702;2022-10-16T01:21:22;99970.00;;;9.80
68743;BMP180;55725;42.758;26.702;2022-10-16T01:24:44;99968.00;;;9.90
68743;BMP180;55725;42.758;26.702;2022-10-16T01:28:22;99975.00;;;9.80
68743;BMP180;55725;42.758;26.702;2022-10-16T01:30:10;99976.00;;;10.00
68743;BMP180;55725;42.758;26.702;2022-10-16T01:31:53;99981.00;;;10.00
68743;BMP180;55725;42.758;26.702;2022-10-16T01:33:40;99990.00;;;10.10
68743;BMP180;55725;42.758;26.702;2022-10-16T01:35:25;99981.00;;;9.90
68743;BMP180;55725;42.758;26.702;2022-10-16T01:37:14;99993.00;;;9.80
68743;BMP180;55725;42.758;26.702;2022-10-16T01:38:56;99992.00;;;10.10
68743;BMP180;55725;42.758;26.702;2022-10-16T01:40:40;99988.00;;;10.00
68743;BMP180;55725;42.758;26.702;2022-10-16T01:42:22;99997.00;;;9.90
68743;BMP180;55725;42.758;26.702;2022-10-16T01:44:10;99991.00;;;10.30
68743;BMP180;55725;42.758;26.702;2022-10-16T01:45:51;99997.00;;;9.80
68743;BMP180;55725;42.758;26.702;2022-10-16T01:47:32;99994.00;;;9.80
68743;BMP180;55725;42.758;26.702;2022-10-16T01:49:15;99988.00;;;9.80
68743;BMP180;55725;42.758;26.702;2022-10-16T01:51:14;99981.00;;;9.60
68743;BMP180;55725;42.758;26.702;2022-10-16T01:52:54;99996.00;;;10.00
68743;BMP180;55725;42.758;26.702;2022-10-16T01:54:36;99993.00;;;9.70
68743;BMP180;55725;42.758;26.702;2022-10-16T01:56:17;99989.00;;;9.60
68743;BMP180;55725;42.758;26.702;2022-10-16T01:58:00;99992.00;;;9.20
68743;BMP180;55725;42.758;26.702;2022-10-16T01:59:43;99993.00;;;9.30
68743;BMP180;55725;42.758;26.702;2022-10-16T02:01:24;99991.00;;;9.30
68743;BMP180;55725;42.758;26.702;2022-10-16T02:03:06;99995.00;;;9.20
68743;BMP180;55725;42.758;26.702;2022-10-16T02:04:48;99988.00;;;9.00
68743;BMP180;55725;42.758;26.702;2022-10-16T02:06:29;99987.00;;;9.10
68743;BMP180;55725;42.758;26.702;2022-10-16T02:08:10;99985.00;;;9.10
68743;BMP180;55725;42.758;26.702;2022-10-16T02:09:50;99992.00;;;9.20
68743;BMP180;55725;42.758;26.702;2022-10-16T02:11:31;99992.00;;;9.10
68743;BMP180;55725;42.758;26.702;2022-10-16T02:14:54;100001.00;;;9.20
68743;BMP180;55725;42.758;26.702;2022-10-16T02:16:39;100005.00;;;9.20
68743;BMP180;55725;42.758;26.702;2022-10-16T02:18:20;100005.00;;;9.30
68743;BMP180;55725;42.758;26.702;2022-10-16T02:20:00;100005.00;;;9.50
68743;BMP180;55725;42.758;26.702;2022-10-16T02:21:43;100007.00;;;9.30
68743;BMP180;55725;42.758;26.702;2022-10-16T02:23:26;100003.00;;;9.00
68743;BMP180;55725;42.758;26.702;2022-10-16T02:25:19;100017.00;;;9.20
68743;BMP180;55725;42.758;26.702;2022-10-16T02:27:03;100018.00;;;9.60
68743;BMP180;55725;42.758;26.702;2022-10-16T02:28:46;100018.00;;;9.30
68743;BMP180;55725;42.758;26.702;2022-10-16T02:30:45;100013.00;;;9.20
68743;BMP180;55725;42.758;26.702;2022-10-16T02:32:29;100017.00;;;9.30
68743;BMP180;55725;42.758;26.702;2022-10-16T02:34:10;100015.00;;;9.40
68743;BMP180;55725;42.758;26.702;2022-10-16T02:35:52;100014.00;;;9.40
68743;BMP180;55725;42.758;26.702;2022-10-16T02:37:33;100009.00;;;9.50
68743;BMP180;55725;42.758;26.702;2022-10-16T02:39:14;100021.00;;;9.60
68743;BMP180;55725;42.758;26.702;2022-10-16T02:40:54;100020.00;;;9.60
68743;BMP180;55725;42.758;26.702;2022-10-16T02:42:35;100030.00;;;9.40
68743;BMP180;55725;42.758;26.702;2022-10-16T02:44:16;100022.00;;;9.70
68743;BMP180;55725;42.758;26.702;2022-10-16T02:45:56;100029.00;;;9.50
68743;BMP180;55725;42.758;26.702;2022-10-16T02:47:37;100030.00;;;9.30
68743;BMP180;55725;42.758;26.702;2022-10-16T02:49:17;100036.00;;;9.30
68743;BMP180;55725;42.758;26.702;2022-10-16T02:50:58;100036.00;;;9.20
68743;BMP180;55725;42.758;26.702;2022-10-16T02:52:39;100032.00;;;9.30
68743;BMP180;55725;42.758;26.702;2022-10-16T02:54:19;100031.00;;;9.10
68743;BMP180;55725;42.758;26.702;2022-10-16T02:55:59;100037.00;;;8.90
68743;BMP180;55725;42.758;26.702;2022-10-16T02:57:40;100044.00;;;8.80
68743;BMP180;55725;42.758;26.702;2022-10-16T02:59:20;100045.00;;;8.80
68743;BMP180;55725;42.758;26.702;2022-10-16T03:01:00;100051.00;;;8.90
68743;BMP180;55725;42.758;26.702;2022-10-16T03:02:41;100047.00;;;8.70
68743;BMP180;55725;42.758;26.702;2022-10-16T03:04:21;100045.00;;;8.60
68743;BMP180;55725;42.758;26.702;2022-10-16T03:06:01;100045.00;;;8.60
68743;BMP180;55725;42.758;26.702;2022-10-16T03:07:42;100048.00;;;8.70
68743;BMP180;55725;42.758;26.702;2022-10-16T03:09:23;100050.00;;;8.60
68743;BMP180;55725;42.758;26.702;2022-10-16T03:11:03;100048.00;;;8.60
68743;BMP180;55725;42.758;26.702;2022-10-16T03:12:43;100052.00;;;8.60
68743;BMP180;55725;42.758;26.702;2022-10-16T03:14:24;100052.00;;;8.60
68743;BMP180;55725;42.758;26.702;2022-10-16T03:16:04;100053.00;;;8.70
68743;BMP180;55725;42.758;26.702;2022-10-16T03:17:44;100058.00;;;8.60
68743;BMP180;55725;42.758;26.702;2022-10-16T03:19:25;100050.00;;;8.50
68743;BMP180;55725;42.758;26.702;2022-10-16T03:21:05;100045.00;;;8.50
68743;BMP180;55725;42.758;26.702;2022-10-16T03:22:46;100058.00;;;8.60
68743;BMP180;55725;42.758;26.702;2022-10-16T03:24:26;100059.00;;;8.50
68743;BMP180;55725;42.758;26.702;2022-10-16T03:26:06;100052.00;;;8.60
68743;BMP180;55725;42.758;26.702;2022-10-16T03:27:46;100052.00;;;8.50
68743;BMP180;55725;42.758;26.702;2022-10-16T03:29:27;100055.00;;;8.30
68743;BMP180;55725;42.758;26.702;2022-10-16T03:31:09;100062.00;;;8.40
68743;BMP180;55725;42.758;26.702;2022-10-16T03:32:49;100059.00;;;8.40
68743;BMP180;55725;42.758;26.702;2022-10-16T03:34:33;100059.00;;;8.50
68743;BMP180;55725;42.758;26.702;2022-10-16T03:36:14;100056.00;;;8.90
68743;BMP180;55725;42.758;26.702;2022-10-16T03:37:54;100056.00;;;8.50
68743;BMP180;55725;42.758;26.702;2022-10-16T03:39:34;100051.00;;;8.80
68743;BMP180;55725;42.758;26.702;2022-10-16T03:41:15;100052.00;;;8.90
68743;BMP180;55725;42.758;26.702;2022-10-16T03:42:55;100053.00;;;8.90
68743;BMP180;55725;42.758;26.702;2022-10-16T03:44:37;100060.00;;;8.70
68743;BMP180;55725;42.758;26.702;2022-10-16T03:46:17;100059.00;;;8.60
68743;BMP180;55725;42.758;26.702;2022-10-16T03:47:57;100064.00;;;8.50
68743;BMP180;55725;42.758;26.702;2022-10-16T03:49:38;100063.00;;;9.10
68743;BMP180;55725;42.758;26.702;2022-10-16T03:51:18;100070.00;;;9.10
68743;BMP180;55725;42.758;26.702;2022-10-16T03:52:58;100060.00;;;9.10
68743;BMP180;55725;42.758;26.702;2022-10-16T03:54:39;100064.00;;;8.80
68743;BMP180;55725;42.758;26.702;2022-10-16T03:56:19;100059.00;;;8.90
68743;BMP180;55725;42.758;26.702;2022-10-16T03:57:59;100056.00;;;8.80
68743;BMP180;55725;42.758;26.702;2022-10-16T03:59:39;100053.00;;;8.60
68743;BMP180;55725;42.758;26.702;2022-10-16T04:01:20;100054.00;;;8.60
68743;BMP180;55725;42.758;26.702;2022-10-16T04:03:00;100061.00;;;8.40
68743;BMP180;55725;42.758;26.702;2022-10-16T04:04:41;100047.00;;;8.70
68743;BMP180;55725;42.758;26.702;2022-10-16T04:06:21;100061.00;;;8.60
68743;BMP180;55725;42.758;26.702;2022-10-16T04:08:01;100052.00;;;8.40
68743;BMP180;55725;42.758;26.702;2022-10-16T04:09:42;100068.00;;;8.30
68743;BMP180;55725;42.758;26.702;2022-10-16T04:11:22;100054.00;;;8.30
68743;BMP180;55725;42.758;26.702;2022-10-16T04:13:02;100061.00;;;8.20
68743;BMP180;55725;42.758;26.702;2022-10-16T04:14:43;100057.00;;;8.00
68743;BMP180;55725;42.758;26.702;2022-10-16T04:16:23;100052.00;;;8.00
68743;BMP180;55725;42.758;26.702;2022-10-16T04:18:04;100050.00;;;8.10
68743;BMP180;55725;42.758;26.702;2022-10-16T04:19:44;100056.00;;;8.20
68743;BMP180;55725;42.758;26.702;2022-10-16T04:21:24;100056.00;;;8.00
68743;BMP180;55725;42.758;26.702;2022-10-16T04:23:05;100053.00;;;8.30
68743;BMP180;55725;42.758;26.702;2022-10-16T04:24:45;100058.00;;;8.70
68743;BMP180;55725;42.758;26.702;2022-10-16T04:26:25;100048.00;;;8.40
68743;BMP180;55725;42.758;26.702;2022-10-16T04:28:05;100054.00;;;8.40
68743;BMP180;55725;42.758;26.702;2022-10-16T04:29:46;100055.00;;;8.20
68743;BMP180;55725;42.758;26.702;2022-10-16T04:31:26;100051.00;;;8.80
68743;BMP180;55725;42.758;26.702;2022-10-16T04:33:08;100054.00;;;8.80
68743;BMP180;55725;42.758;26.702;2022-10-16T04:34:48;100057.00;;;8.70
68743;BMP180;55725;42.758;26.702;2022-10-16T04:36:29;100050.00;;;8.60
68743;BMP180;55725;42.758;26.702;2022-10-16T04:38:09;100052.00;;;9.00
68743;BMP180;55725;42.758;26.702;2022-10-16T04:39:49;100070.00;;;9.20
68743;BMP180;55725;42.758;26.702;2022-10-16T04:41:30;100060.00;;;9.20
68743;BMP180;55725;42.758;26.702;2022-10-16T04:43:10;100065.00;;;9.00
68743;BMP180;55725;42.758;26.702;2022-10-16T04:44:50;100064.00;;;9.10
68743;BMP180;55725;42.758;26.702;2022-10-16T04:46:31;100075.00;;;9.30
68743;BMP180;55725;42.758;26.702;2022-10-16T04:48:11;100058.00;;;9.30
68743;BMP180;55725;42.758;26.702;2022-10-16T04:49:51;100063.00;;;9.10
68743;BMP180;55725;42.758;26.702;2022-10-16T04:51:32;100058.00;;;9.20
68743;BMP180;55725;42.758;26.702;2022-10-16T04:53:12;100062.00;;;9.10
68743;BMP180;55725;42.758;26.702;2022-10-16T04:54:52;100070.00;;;9.30
68743;BMP180;55725;42.758;26.702;2022-10-16T04:56:34;100068.00;;;9.60
68743;BMP180;55725;42.758;26.702;2022-10-16T04:58:20;100076.00;;;9.60
68743;BMP180;55725;42.758;26.702;2022-10-16T05:00:00;100082.00;;;9.60
68743;BMP180;55725;42.758;26.702;2022-10-16T05:01:40;100084.00;;;9.70
68743;BMP180;55725;42.758;26.702;2022-10-16T05:03:21;100079.00;;;9.70
68743;BMP180;55725;42.758;26.702;2022-10-16T05:05:01;100086.00;;;9.80
68743;BMP180;55725;42.758;26.702;2022-10-16T05:06:42;100087.00;;;9.60
68743;BMP180;55725;42.758;26.702;2022-10-16T05:08:22;100087.00;;;9.90
68743;BMP180;55725;42.758;26.702;2022-10-16T05:10:03;100083.00;;;10.10
68743;BMP180;55725;42.758;26.702;2022-10-16T05:11:43;100079.00;;;9.80
68743;BMP180;55725;42.758;26.702;2022-10-16T05:13:23;100076.00;;;9.80
68743;BMP180;55725;42.758;26.702;2022-10-16T05:15:04;100079.00;;;10.00
68743;BMP180;55725;42.758;26.702;2022-10-16T05:16:44;100086.00;;;10.20
68743;BMP180;55725;42.758;26.702;2022-10-16T05:18:25;100075.00;;;9.90
68743;BMP180;55725;42.758;26.702;2022-10-16T05:20:05;100082.00;;;10.20
68743;BMP180;55725;42.758;26.702;2022-10-16T05:21:45;100080.00;;;10.50
68743;BMP180;55725;42.758;26.702;2022-10-16T05:23:26;100078.00;;;10.30
68743;BMP180;55725;42.758;26.702;2022-10-16T05:25:06;100085.00;;;10.60
68743;BMP180;55725;42.758;26.702;2022-10-16T05:26:46;100078.00;;;10.30
68743;BMP180;55725;42.758;26.702;2022-10-16T05:28:28;100087.00;;;10.20
68743;BMP180;55725;42.758;26.702;2022-10-16T05:30:08;100092.00;;;10.40
68743;BMP180;55725;42.758;26.702;2022-10-16T05:31:52;100099.00;;;10.40
68743;BMP180;55725;42.758;26.702;2022-10-16T05:33:33;100087.00;;;10.70
68743;BMP180;55725;42.758;26.702;2022-10-16T05:35:13;100098.00;;;10.80
68743;BMP180;55725;42.758;26.702;2022-10-16T05:36:54;100095.00;;;10.70
68743;BMP180;55725;42.758;26.702;2022-10-16T05:38:34;100095.00;;;10.80
68743;BMP180;55725;42.758;26.702;2022-10-16T05:40:15;100092.00;;;11.00
68743;BMP180;55725;42.758;26.702;2022-10-16T05:41:56;100096.00;;;11.10
68743;BMP180;55725;42.758;26.702;2022-10-16T05:43:36;100096.00;;;11.50
68743;BMP180;55725;42.758;26.702;2022-10-16T05:45:17;100099.00;;;11.50
68743;BMP180;55725;42.758;26.702;2022-10-16T05:46:57;100101.00;;;11.40
68743;BMP180;55725;42.758;26.702;2022-10-16T05:48:37;100102.00;;;11.40
68743;BMP180;55725;42.758;26.702;2022-10-16T05:50:18;100102.00;;;11.70
68743;BMP180;55725;42.758;26.702;2022-10-16T05:51:58;100102.00;;;11.50
68743;BMP180;55725;42.758;26.702;2022-10-16T05:53:39;100099.00;;;11.60
68743;BMP180;55725;42.758;26.702;2022-10-16T05:55:19;100105.00;;;12.00
68743;BMP180;55725;42.758;26.702;2022-10-16T05:57:00;100093.00;;;11.90
68743;BMP180;55725;42.758;26.702;2022-10-16T05:58:40;100103.00;;;11.80
68743;BMP180;55725;42.758;26.702;2022-10-16T06:00:21;100105.00;;;12.10
68743;BMP180;55725;42.758;26.702;2022-10-16T06:02:01;100094.00;;;12.40
68743;BMP180;55725;42.758;26.702;2022-10-16T06:03:41;100103.00;;;12.70
68743;BMP180;55725;42.758;26.702;2022-10-16T06:05:22;100107.00;;;12.40
68743;BMP180;55725;42.758;26.702;2022-10-16T06:07:02;100109.00;;;12.30
68743;BMP180;55725;42.758;26.702;2022-10-16T06:08:43;100109.00;;;12.30
68743;BMP180;55725;42.758;26.702;2022-10-16T06:10:23;100117.00;;;11.50
68743;BMP180;55725;42.758;26.702;2022-10-16T06:12:04;100107.00;;;11.50
68743;BMP180;55725;42.758;26.702;2022-10-16T06:13:44;100115.00;;;11.60
68743;BMP180;55725;42.758;26.702;2022-10-16T06:15:25;100107.00;;;11.60
68743;BMP180;55725;42.758;26.702;2022-10-16T06:17:06;100105.00;;;12.00
68743;BMP180;55725;42.758;26.702;2022-10-16T06:18:53;100113.00;;;11.80
68743;BMP180;55725;42.758;26.702;2022-10-16T06:20:33;100104.00;;;12.20
68743;BMP180;55725;42.758;26.702;2022-10-16T06:22:14;100106.00;;;12.30
68743;BMP180;55725;42.758;26.702;2022-10-16T06:23:54;100102.00;;;12.50
68743;BMP180;55725;42.758;26.702;2022-10-16T06:25:35;100097.00;;;12.50
68743;BMP180;55725;42.758;26.702;2022-10-16T06:27:15;100109.00;;;12.70
68743;BMP180;55725;42.758;26.702;2022-10-16T06:28:57;100105.00;;;13.20
68743;BMP180;55725;42.758;26.702;2022-10-16T06:30:37;100108.00;;;12.90
68743;BMP180;55725;42.758;26.702;2022-10-16T06:32:17;100106.00;;;13.10
68743;BMP180;55725;42.758;26.702;2022-10-16T06:33:58;100108.00;;;13.40
68743;BMP180;55725;42.758;26.702;2022-10-16T06:35:39;100112.00;;;13.80
68743;BMP180;55725;42.758;26.702;2022-10-16T06:37:19;100109.00;;;14.00
68743;BMP180;55725;42.758;26.702;2022-10-16T06:38:59;100101.00;;;13.90
68743;BMP180;55725;42.758;26.702;2022-10-16T06:40:40;100104.00;;;14.00
68743;BMP180;55725;42.758;26.702;2022-10-16T06:42:20;100099.00;;;14.10
68743;BMP180;55725;42.758;26.702;2022-10-16T06:44:01;100097.00;;;14.10
68743;BMP180;55725;42.758;26.702;2022-10-16T06:45:50;100083.00;;;14.20
68743;BMP180;55725;42.758;26.702;2022-10-16T06:47:30;100089.00;;;14.30
68743;BMP180;55725;42.758;26.702;2022-10-16T06:49:10;100079.00;;;14.20
68743;BMP180;55725;42.758;26.702;2022-10-16T06:52:40;100079.00;;;14.40
68743;BMP180;55725;42.758;26.702;2022-10-16T06:54:20;100087.00;;;14.80
68743;BMP180;55725;42.758;26.702;2022-10-16T06:56:11;100079.00;;;15.00
68743;BMP180;55725;42.758;26.702;2022-10-16T06:57:51;100075.00;;;14.80
68743;BMP180;55725;42.758;26.702;2022-10-16T06:59:32;100076.00;;;14.90
68743;BMP180;55725;42.758;26.702;2022-10-16T07:01:13;100079.00;;;15.00
68743;BMP180;55725;42.758;26.702;2022-10-16T07:02:53;100075.00;;;14.90
68743;BMP180;55725;42.758;26.702;2022-10-16T07:04:35;100087.00;;;14.90
68743;BMP180;55725;42.758;26.702;2022-10-16T07:06:16;100078.00;;;15.20
68743;BMP180;55725;42.758;26.702;2022-10-16T07:07:57;100070.00;;;15.60
68743;BMP180;55725;42.758;26.702;2022-10-16T07:09:37;100070.00;;;15.90
68743;BMP180;55725;42.758;26.702;2022-10-16T07:11:21;100078.00;;;15.50
68743;BMP180;55725;42.758;26.702;2022-10-16T07:13:01;100067.00;;;15.80
68743;BMP180;55725;42.758;26.702;2022-10-16T07:14:42;100081.00;;;15.60
68743;BMP180;55725;42.758;26.702;2022-10-16T07:16:23;100078.00;;;15.60
68743;BMP180;55725;42.758;26.702;2022-10-16T07:18:04;100074.00;;;15.50
68743;BMP180;55725;42.758;26.702;2022-10-16T07:19:44;100069.00;;;16.00
68743;BMP180;55725;42.758;26.702;2022-10-16T07:21:25;100078.00;;;15.80
68743;BMP180;55725;42.758;26.702;2022-10-16T07:23:06;100080.00;;;16.00
68743;BMP180;55725;42.758;26.702;2022-10-16T07:24:46;100084.00;;;16.30
68743;BMP180;55725;42.758;26.702;2022-10-16T07:26:28;100076.00;;;16.40
68743;BMP180;55725;42.758;26.702;2022-10-16T07:28:09;100073.00;;;16.60
68743;BMP180;55725;42.758;26.702;2022-10-16T07:29:50;100082.00;;;16.20
68743;BMP180;55725;42.758;26.702;2022-10-16T07:31:30;100083.00;;;16.10
68743;BMP180;55725;42.758;26.702;2022-10-16T07:33:11;100078.00;;;16.40
68743;BMP180;55725;42.758;26.702;2022-10-16T07:34:51;100089.00;;;16.30
68743;BMP180;55725;42.758;26.702;2022-10-16T07:36:32;100088.00;;;16.70
68743;BMP180;55725;42.758;26.702;2022-10-16T07:38:12;100081.00;;;16.50
68743;BMP180;55725;42.758;26.702;2022-10-16T07:39:53;100092.00;;;17.20
68743;BMP180;55725;42.758;26.702;2022-10-16T07:41:33;100090.00;;;17.10
68743;BMP180;55725;42.758;26.702;2022-10-16T07:43:16;100090.00;;;17.10
68743;BMP180;55725;42.758;26.702;2022-10-16T07:44:56;100096.00;;;16.70
68743;BMP180;55725;42.758;26.702;2022-10-16T07:46:37;100091.00;;;17.10
68743;BMP180;55725;42.758;26.702;2022-10-16T07:48:17;100089.00;;;17.20
68743;BMP180;55725;42.758;26.702;2022-10-16T07:49:58;100087.00;;;17.40
68743;BMP180;55725;42.758;26.702;2022-10-16T07:51:38;100091.00;;;17.60
68743;BMP180;55725;42.758;26.702;2022-10-16T07:53:19;100086.00;;;17.30
68743;BMP180;55725;42.758;26.702;2022-10-16T07:54:59;100083.00;;;17.00
68743;BMP180;55725;42.758;26.702;2022-10-16T07:56:39;100081.00;;;17.10
68743;BMP180;55725;42.758;26.702;2022-10-16T07:58:20;100082.00;;;17.50
68743;BMP180;55725;42.758;26.702;2022-10-16T08:00:00;100085.00;;;18.10
68743;BMP180;55725;42.758;26.702;2022-10-16T08:01:40;100080.00;;;18.20
68743;BMP180;55725;42.758;26.702;2022-10-16T08:03:22;100078.00;;;18.10
68743;BMP180;55725;42.758;26.702;2022-10-16T08:05:02;100074.00;;;18.10
68743;BMP180;55725;42.758;26.702;2022-10-16T08:06:43;100079.00;;;17.90
68743;BMP180;55725;42.758;26.702;2022-10-16T08:08:23;100085.00;;;17.90
68743;BMP180;55725;42.758;26.702;2022-10-16T08:10:04;100079.00;;;17.80
68743;BMP180;55725;42.758;26.702;2022-10-16T08:11:44;100069.00;;;18.00
68743;BMP180;55725;42.758;26.702;2022-10-16T08:13:25;100068.00;;;18.10
68743;BMP180;55725;42.758;26.702;2022-10-16T08:15:06;100077.00;;;18.30
68743;BMP180;55725;42.758;26.702;2022-10-16T08:16:47;100080.00;;;18.60
68743;BMP180;55725;42.758;26.702;2022-10-16T08:18:27;100075.00;;;18.30
68743;BMP180;55725;42.758;26.702;2022-10-16T08:20:07;100068.00;;;18.80
68743;BMP180;55725;42.758;26.702;2022-10-16T08:21:48;100081.00;;;18.50
68743;BMP180;55725;42.758;26.702;2022-10-16T08:23:28;100086.00;;;18.70
68743;BMP180;55725;42.758;26.702;2022-10-16T08:25:09;100084.00;;;18.70
68743;BMP180;55725;42.758;26.702;2022-10-16T08:26:49;100082.00;;;18.50
68743;BMP180;55725;42.758;26.702;2022-10-16T08:28:29;100085.00;;;19.00
68743;BMP180;55725;42.758;26.702;2022-10-16T08:30:10;100078.00;;;18.70
68743;BMP180;55725;42.758;26.702;2022-10-16T08:31:50;100079.00;;;18.60
68743;BMP180;55725;42.758;26.702;2022-10-16T08:33:30;100077.00;;;18.40
68743;BMP180;55725;42.758;26.702;2022-10-16T08:35:11;100078.00;;;18.80
68743;BMP180;55725;42.758;26.702;2022-10-16T08:36:55;100083.00;;;19.50
68743;BMP180;55725;42.758;26.702;2022-10-16T08:38:35;100076.00;;;19.30
68743;BMP180;55725;42.758;26.702;2022-10-16T08:40:17;100082.00;;;19.00
68743;BMP180;55725;42.758;26.702;2022-10-16T08:42:32;100083.00;;;19.50
68743;BMP180;55725;42.758;26.702;2022-10-16T08:49:15;100089.00;;;19.70
68743;BMP180;55725;42.758;26.702;2022-10-16T08:50:56;100095.00;;;19.40
68743;BMP180;55725;42.758;26.702;2022-10-16T08:52:38;100090.00;;;19.50
68743;BMP180;55725;42.758;26.702;2022-10-16T08:54:27;100102.00;;;19.40
68743;BMP180;55725;42.758;26.702;2022-10-16T08:56:09;100088.00;;;19.20
68743;BMP180;55725;42.758;26.702;2022-10-16T08:57:49;100102.00;;;20.10
68743;BMP180;55725;42.758;26.702;2022-10-16T08:59:30;100102.00;;;20.20
68743;BMP180;55725;42.758;26.702;2022-10-16T09:01:14;100100.00;;;19.70
68743;BMP180;55725;42.758;26.702;2022-10-16T09:12:40;100095.00;;;20.20
68743;BMP180;55725;42.758;26.702;2022-10-16T09:14:35;100103.00;;;20.50
68743;BMP180;55725;42.758;26.702;2022-10-16T09:16:33;100100.00;;;19.90
68743;BMP180;55725;42.758;26.702;2022-10-16T09:22:15;100106.00;;;19.80
68743;BMP180;55725;42.758;26.702;2022-10-16T09:23:59;100106.00;;;19.80
68743;BMP180;55725;42.758;26.702;2022-10-16T09:25:44;100103.00;;;20.10
68743;BMP180;55725;42.758;26.702;2022-10-16T09:27:25;100108.00;;;20.60
68743;BMP180;55725;42.758;26.702;2022-10-16T09:29:06;100106.00;;;20.60
68743;BMP180;55725;42.758;26.702;2022-10-16T09:30:46;100109.00;;;20.40
68743;BMP180;55725;42.758;26.702;2022-10-16T09:32:29;100106.00;;;20.70
68743;BMP180;55725;42.758;26.702;2022-10-16T09:35:58;100108.00;;;20.70
68743;BMP180;55725;42.758;26.702;2022-10-16T09:37:39;100103.00;;;20.20
68743;BMP180;55725;42.758;26.702;2022-10-16T09:39:20;100115.00;;;20.20
68743;BMP180;55725;42.758;26.702;2022-10-16T09:41:01;100098.00;;;19.90
68743;BMP180;55725;42.758;26.702;2022-10-16T09:42:42;100103.00;;;20.30
68743;BMP180;55725;42.758;26.702;2022-10-16T09:44:29;100113.00;;;20.60
68743;BMP180;55725;42.758;26.702;2022-10-16T09:46:25;100107.00;;;20.90
68743;BMP180;55725;42.758;26.702;2022-10-16T09:48:12;100105.00;;;20.70
68743;BMP180;55725;42.758;26.702;2022-10-16T09:49:53;100095.00;;;21.10
68743;BMP180;55725;42.758;26.702;2022-10-16T09:51:35;100102.00;;;21.10
68743;BMP180;55725;42.758;26.702;2022-10-16T09:53:16;100098.00;;;21.60
68743;BMP180;55725;42.758;26.702;2022-10-16T09:55:00;100104.00;;;20.50
68743;BMP180;55725;42.758;26.702;2022-10-16T09:56:40;100103.00;;;21.20
68743;BMP180;55725;42.758;26.702;2022-10-16T09:58:22;100106.00;;;21.70
68743;BMP180;55725;42.758;26.702;2022-10-16T10:00:04;100105.00;;;22.00
68743;BMP180;55725;42.758;26.702;2022-10-16T10:01:49;100099.00;;;20.80
68743;BMP180;55725;42.758;26.702;2022-10-16T10:03:33;100101.00;;;20.90
68743;BMP180;55725;42.758;26.702;2022-10-16T10:05:18;100090.00;;;20.40
68743;BMP180;55725;42.758;26.702;2022-10-16T10:07:01;100086.00;;;21.20
68743;BMP180;55725;42.758;26.702;2022-10-16T10:08:41;100095.00;;;21.30
68743;BMP180;55725;42.758;26.702;2022-10-16T10:10:32;100090.00;;;21.50
68743;BMP180;55725;42.758;26.702;2022-10-16T10:14:06;100098.00;;;21.30